Time;durP1;ratioP1;P1;durP2;ratioP2;P2;SDS_P1;SDS_P2;PMS_P1;PMS_P2;Temp;Humidity;BMP_temperature;BMP_pressure;BME280_temperature;BME280_humidity;BME280_pressure;Samples;Min_cycle;Max_cycle;Signal;HPM_P1;HPM_P2
2023/04/05 00:01:24;;;;;;;19.27;10.60;;;7.20;97.80;;;;;;5053042;28;20175;-77
2023/04/05 00:03:51;;;;;;;12.80;7.53;;;7.40;97.90;;;;;;5051901;28;20214;-77
2023/04/05 00:06:17;;;;;;;15.93;8.23;;;7.30;98.30;;;;;;5051338;28;20186;-77
2023/04/05 00:08:48;;;;;;;16.47;7.40;;;7.20;99.70;;;;;;5051115;28;20190;-77
2023/04/05 00:11:17;;;;;;;13.73;8.00;;;7.20;99.90;;;;;;5051552;28;20263;-78
2023/04/05 00:13:43;;;;;;;17.03;8.83;;;7.30;99.90;;;;;;5051446;28;20168;-78
2023/04/05 00:16:09;;;;;;;11.97;7.83;;;7.40;99.90;;;;;;5051052;28;20517;-79
2023/04/05 00:18:37;;;;;;;17.90;8.83;;;7.30;99.90;;;;;;5050625;28;20231;-79
2023/04/05 00:21:03;;;;;;;12.50;7.97;;;7.30;99.90;;;;;;5050896;28;20164;-78
2023/04/05 00:23:36;;;;;;;15.90;7.80;;;7.20;99.90;;;;;;5050857;28;20189;-77
2023/04/05 00:26:02;;;;;;;15.90;8.37;;;7.30;99.90;;;;;;5050625;28;20609;-78
2023/04/05 00:28:27;;;;;;;11.90;7.63;;;7.20;99.90;;;;;;5051417;28;20164;-77
2023/04/05 00:30:54;;;;;;;14.13;8.30;;;7.30;99.90;;;;;;5052024;28;20267;-77
2023/04/05 00:33:19;;;;;;;14.73;8.10;;;7.40;99.90;;;;;;5050973;28;20175;-77
2023/04/05 00:35:46;;;;;;;16.83;8.37;;;7.30;99.90;;;;;;5050558;28;20187;-76
2023/04/05 00:38:11;;;;;;;11.13;7.53;;;7.40;99.90;;;;;;5050860;28;20164;-77
2023/04/05 00:40:38;;;;;;;12.40;7.87;;;7.40;99.90;;;;;;5051150;28;20558;-79
2023/04/05 00:43:05;;;;;;;16.97;8.23;;;7.40;99.90;;;;;;5051876;28;20539;-78
2023/04/05 00:45:31;;;;;;;14.90;7.80;;;7.30;99.90;;;;;;5050920;28;20186;-77
2023/04/05 00:47:59;;;;;;;18.43;8.60;;;7.30;99.90;;;;;;5052489;28;20149;-76
2023/04/05 00:50:29;;;;;;;18.47;8.67;;;7.30;99.90;;;;;;5051604;28;20178;-78
2023/04/05 00:52:56;;;;;;;18.27;9.47;;;7.30;99.90;;;;;;5051220;28;20200;-78
2023/04/05 00:55:22;;;;;;;12.90;8.47;;;7.20;99.90;;;;;;5051213;28;20269;-77
2023/04/05 00:57:48;;;;;;;14.20;9.03;;;7.10;99.90;;;;;;5051046;28;20633;-80
2023/04/05 01:00:14;;;;;;;15.00;8.47;;;7.20;99.90;;;;;;5051141;28;20235;-79
2023/04/05 01:02:51;;;;;;;18.03;8.40;;;7.10;99.90;;;;;;5051056;28;20168;-79
2023/04/05 01:05:26;;;;;;;13.50;8.17;;;7.10;99.90;;;;;;5054939;28;20168;-78
2023/04/05 01:08:40;;;;;;;15.67;9.00;;;7.00;99.90;;;;;;5054393;28;20189;-78
2023/04/05 01:11:08;;;;;;;14.53;8.80;;;7.10;99.90;;;;;;5013221;28;20176;-78
2023/04/05 01:13:34;;;;;;;16.17;8.63;;;7.00;99.90;;;;;;5054402;28;20660;-79
2023/04/05 01:16:00;;;;;;;15.73;8.57;;;7.00;99.90;;;;;;5054813;28;20186;-79
2023/04/05 01:18:26;;;;;;;15.13;8.20;;;7.00;99.90;;;;;;5054801;28;20672;-80
2023/04/05 01:21:21;;;;;;;18.70;9.33;;;6.90;99.90;;;;;;5054942;28;20191;-79
2023/04/05 01:24:08;;;;;;;15.40;8.67;;;6.80;99.90;;;;;;5054363;28;20194;-78
2023/04/05 01:27:00;;;;;;;19.20;9.20;;;6.70;99.90;;;;;;5054154;28;20176;-78
2023/04/05 01:29:40;;;;;;;13.80;8.87;;;6.60;99.90;;;;;;5055673;28;20195;-77
2023/04/05 01:33:07;;;;;;;17.27;8.80;;;6.50;99.90;;;;;;5053974;28;20176;-76
2023/04/05 01:35:50;;;;;;;14.83;8.83;;;6.40;99.90;;;;;;4977838;28;20169;-77
2023/04/05 01:38:21;;;;;;;16.33;9.03;;;6.40;99.90;;;;;;5013054;28;20185;-78
2023/04/05 01:40:47;;;;;;;16.23;8.50;;;6.40;99.90;;;;;;5027429;28;20185;-78
2023/04/05 01:43:16;;;;;;;13.63;8.27;;;6.40;99.90;;;;;;5055602;28;20655;-78
2023/04/05 01:45:43;;;;;;;16.10;8.50;;;6.40;99.90;;;;;;5053740;28;20259;-77
2023/04/05 01:48:09;;;;;;;15.07;8.47;;;6.40;99.90;;;;;;5055041;28;20185;-79
2023/04/05 01:50:36;;;;;;;16.00;8.77;;;6.40;99.90;;;;;;5053983;28;20623;-77
2023/04/05 01:53:02;;;;;;;15.77;8.80;;;6.30;99.90;;;;;;5054089;28;20166;-78
2023/04/05 01:55:27;;;;;;;15.40;8.60;;;6.20;99.90;;;;;;5053977;28;20667;-77
2023/04/05 01:57:57;;;;;;;18.60;10.30;;;6.20;99.90;;;;;;5053341;28;20567;-79
2023/04/05 02:00:23;;;;;;;17.00;8.60;;;6.30;99.90;;;;;;5053201;28;20210;-78
2023/04/05 02:02:50;;;;;;;14.10;8.70;;;6.30;99.90;;;;;;5055185;28;20180;-78
2023/04/05 02:05:16;;;;;;;11.80;7.73;;;6.20;99.90;;;;;;5053728;28;20194;-77
2023/04/05 02:07:41;;;;;;;13.90;8.60;;;6.10;99.90;;;;;;5053347;28;20176;-78
2023/04/05 02:10:09;;;;;;;16.67;8.93;;;6.20;99.90;;;;;;5054868;28;20171;-78
2023/04/05 02:12:35;;;;;;;13.93;8.60;;;6.30;99.90;;;;;;5053286;28;20176;-79
2023/04/05 02:15:00;;;;;;;16.37;8.63;;;6.20;99.90;;;;;;5054090;28;20194;-78
2023/04/05 02:17:32;;;;;;;18.23;8.70;;;6.10;99.90;;;;;;5054413;28;20651;-79
2023/04/05 02:20:01;;;;;;;17.53;8.17;;;6.20;99.90;;;;;;5055067;28;20191;-77
2023/04/05 02:22:28;;;;;;;16.47;8.87;;;6.20;99.90;;;;;;5054975;28;20595;-78
2023/04/05 02:24:54;;;;;;;14.20;8.20;;;6.10;99.90;;;;;;5053040;28;20255;-78
2023/04/05 02:27:21;;;;;;;16.07;9.00;;;6.10;99.90;;;;;;5054209;28;20163;-79
2023/04/05 02:29:46;;;;;;;18.57;8.37;;;5.90;99.90;;;;;;5054758;28;20537;-79
2023/04/05 02:32:12;;;;;;;15.57;8.40;;;5.90;99.90;;;;;;5053573;28;20182;-78
2023/04/05 02:34:40;;;;;;;15.53;9.33;;;5.90;99.90;;;;;;5052683;28;20689;-79
2023/04/05 02:37:06;;;;;;;13.20;8.73;;;5.90;99.90;;;;;;5052915;28;20179;-80
2023/04/05 02:39:33;;;;;;;17.67;9.27;;;5.80;99.90;;;;;;5053146;28;20197;-81
2023/04/05 02:41:59;;;;;;;17.77;9.60;;;5.80;99.90;;;;;;5053480;28;20511;-80
2023/04/05 02:44:25;;;;;;;16.47;9.17;;;5.80;99.90;;;;;;5053116;28;20180;-79
2023/04/05 02:46:50;;;;;;;17.37;9.53;;;5.60;99.90;;;;;;5053602;28;20633;-80
2023/04/05 02:49:16;;;;;;;15.83;9.43;;;5.60;99.90;;;;;;5052901;28;20174;-79
2023/04/05 02:51:43;;;;;;;16.30;9.53;;;5.60;99.90;;;;;;5052768;28;20611;-79
2023/04/05 02:54:10;;;;;;;14.53;8.97;;;5.50;99.90;;;;;;5053326;28;20271;-79
2023/04/05 02:56:37;;;;;;;17.43;9.77;;;5.50;99.90;;;;;;5053114;28;20574;-79
2023/04/05 02:59:03;;;;;;;14.67;9.33;;;5.50;99.90;;;;;;5053134;28;20288;-78
2023/04/05 03:01:29;;;;;;;16.77;9.47;;;5.60;99.90;;;;;;5052220;28;20204;-78
2023/04/05 03:03:55;;;;;;;15.17;8.90;;;5.60;99.90;;;;;;5052197;28;20529;-79
2023/04/05 03:06:23;;;;;;;15.73;9.43;;;5.60;99.90;;;;;;5053096;28;20166;-78
2023/04/05 03:08:50;;;;;;;17.63;10.17;;;5.60;99.90;;;;;;5051788;28;20560;-78
2023/04/05 03:11:16;;;;;;;16.87;10.00;;;5.50;99.90;;;;;;5052493;28;20288;-78
2023/04/05 03:13:42;;;;;;;16.57;9.87;;;5.50;99.90;;;;;;5052370;28;20182;-80
2023/04/05 03:16:07;;;;;;;16.00;10.53;;;5.40;99.90;;;;;;5052423;28;20229;-79
2023/04/05 03:18:33;;;;;;;18.80;10.13;;;5.40;99.90;;;;;;5052560;28;20210;-80
2023/04/05 03:21:00;;;;;;;22.57;11.40;;;5.40;99.90;;;;;;5051825;28;20178;-80
2023/04/05 03:23:30;;;;;;;19.03;10.67;;;5.40;99.90;;;;;;5052359;28;20509;-79
2023/04/05 03:26:01;;;;;;;16.73;9.70;;;5.30;99.90;;;;;;5052327;28;20253;-80
2023/04/05 03:28:31;;;;;;;17.73;10.33;;;5.40;99.90;;;;;;5052344;28;20180;-80
2023/04/05 03:30:57;;;;;;;19.60;10.47;;;5.40;99.90;;;;;;5052053;28;20204;-79
2023/04/05 03:33:23;;;;;;;16.43;10.03;;;5.40;99.90;;;;;;5051928;28;20178;-79
2023/04/05 03:35:49;;;;;;;17.43;10.43;;;5.30;99.90;;;;;;5053134;28;20220;-79
2023/04/05 03:38:15;;;;;;;18.23;9.70;;;5.30;99.90;;;;;;5053686;28;20252;-79
2023/04/05 03:40:40;;;;;;;16.27;10.33;;;5.30;99.90;;;;;;5053051;28;20638;-79
2023/04/05 03:43:06;;;;;;;18.67;10.40;;;5.10;99.90;;;;;;5053137;28;20174;-79
2023/04/05 03:45:32;;;;;;;19.90;10.73;;;5.00;99.90;;;;;;5051572;28;20253;-78
2023/04/05 03:47:58;;;;;;;18.20;10.90;;;5.00;99.90;;;;;;5051599;28;20253;-78
2023/04/05 03:50:28;;;;;;;16.53;9.30;;;5.00;99.90;;;;;;5051932;28;20202;-78
2023/04/05 03:52:54;;;;;;;21.90;10.40;;;4.90;99.90;;;;;;5051525;28;20181;-78
2023/04/05 03:55:19;;;;;;;18.30;11.07;;;4.90;99.90;;;;;;5052209;28;20516;-78
2023/04/05 03:57:46;;;;;;;18.70;10.27;;;4.80;99.90;;;;;;5051467;28;20180;-78
2023/04/05 04:00:13;;;;;;;19.50;10.80;;;4.90;99.90;;;;;;5051017;28;20699;-80
2023/04/05 04:02:47;;;;;;;20.13;11.70;;;5.00;99.90;;;;;;5052937;28;20176;-79
2023/04/05 04:05:13;;;;;;;16.60;10.03;;;4.90;99.90;;;;;;5051249;28;20514;-78
2023/04/05 04:07:41;;;;;;;19.00;11.07;;;5.00;99.90;;;;;;5051320;28;20204;-78
2023/04/05 04:10:09;;;;;;;17.50;10.23;;;5.00;99.90;;;;;;5050811;28;20630;-78
2023/04/05 04:12:36;;;;;;;15.27;10.70;;;4.80;99.90;;;;;;5050964;28;20272;-80
2023/04/05 04:15:03;;;;;;;20.63;10.57;;;4.80;99.90;;;;;;5050905;28;20182;-80
2023/04/05 04:17:33;;;;;;;20.63;11.50;;;4.70;99.90;;;;;;5051294;28;20175;-78
2023/04/05 04:19:59;;;;;;;24.60;11.27;;;4.70;99.90;;;;;;5051041;28;20203;-78
2023/04/05 04:22:31;;;;;;;18.30;10.90;;;4.70;99.90;;;;;;5052199;28;20607;-79
2023/04/05 04:25:01;;;;;;;17.33;10.40;;;4.70;99.90;;;;;;5051624;28;20165;-80
2023/04/05 04:27:28;;;;;;;21.90;10.93;;;4.80;99.90;;;;;;5051431;28;20552;-78
2023/04/05 04:30:00;;;;;;;20.20;10.93;;;4.80;99.90;;;;;;5050997;28;20167;-80
2023/04/05 04:32:46;;;;;;;17.17;10.47;;;4.80;99.90;;;;;;5051517;28;20160;-78
2023/04/05 04:35:19;;;;;;;20.57;11.10;;;4.80;99.90;;;;;;5051345;28;20177;-79
2023/04/05 04:37:58;;;;;;;16.43;10.67;;;4.80;99.90;;;;;;5051951;28;20681;-79
2023/04/05 04:40:37;;;;;;;21.83;11.20;;;4.70;99.90;;;;;;5054748;28;20625;-79
2023/04/05 04:43:15;;;;;;;21.07;11.40;;;4.70;99.90;;;;;;5054870;28;20173;-79
2023/04/05 04:45:47;;;;;;;17.63;10.80;;;4.80;99.90;;;;;;5054605;28;22442;-78
2023/04/05 04:48:15;;;;;;;19.77;11.13;;;4.80;99.90;;;;;;5054949;28;20631;-80
2023/04/05 04:50:42;;;;;;;19.30;11.00;;;4.80;99.90;;;;;;5054706;28;20238;-79
2023/04/05 04:53:09;;;;;;;20.37;11.17;;;4.70;99.90;;;;;;5056069;28;20141;-79
2023/04/05 04:55:35;;;;;;;18.73;11.10;;;4.70;99.90;;;;;;5054633;28;20158;-78
2023/04/05 04:58:08;;;;;;;20.20;11.50;;;4.70;99.90;;;;;;5054410;28;20168;-78
2023/04/05 05:00:35;;;;;;;19.80;11.57;;;4.60;99.90;;;;;;5054921;28;20260;-78
2023/04/05 05:03:01;;;;;;;23.73;12.57;;;4.60;99.90;;;;;;5054463;28;20180;-78
2023/04/05 05:05:27;;;;;;;19.73;11.63;;;4.70;99.90;;;;;;5054971;28;20200;-79
2023/04/05 05:07:53;;;;;;;20.10;11.80;;;4.70;99.90;;;;;;5055773;28;20185;-79
2023/04/05 05:10:19;;;;;;;16.03;10.97;;;4.70;99.90;;;;;;5055124;28;20184;-78
2023/04/05 05:12:47;;;;;;;21.50;11.53;;;4.70;99.90;;;;;;5055362;28;20707;-79
2023/04/05 05:15:16;;;;;;;23.47;11.50;;;4.60;99.90;;;;;;5054389;28;20223;-79
2023/04/05 05:17:42;;;;;;;20.90;11.40;;;4.50;99.90;;;;;;5054566;28;20169;-79
2023/04/05 05:20:09;;;;;;;20.30;11.37;;;4.60;99.90;;;;;;5055596;28;20254;-79
2023/04/05 05:22:39;;;;;;;19.73;11.23;;;4.50;99.90;;;;;;5055624;28;20247;-80
2023/04/05 05:25:06;;;;;;;24.07;11.27;;;4.60;99.90;;;;;;5055521;28;20169;-78
2023/04/05 05:27:32;;;;;;;22.53;12.00;;;4.60;99.90;;;;;;5053996;28;20266;-79
2023/04/05 05:29:58;;;;;;;17.93;10.80;;;4.60;99.90;;;;;;5054806;28;20183;-79
2023/04/05 05:32:24;;;;;;;18.10;11.30;;;4.60;99.90;;;;;;5054698;28;20178;-79
2023/04/05 05:34:50;;;;;;;20.53;11.97;;;4.60;99.90;;;;;;5055011;28;20161;-78
2023/04/05 05:37:16;;;;;;;21.83;11.77;;;4.70;99.90;;;;;;5055511;28;20169;-79
2023/04/05 05:39:46;;;;;;;18.67;12.07;;;4.70;99.90;;;;;;5054214;28;20237;-78
2023/04/05 05:42:11;;;;;;;23.37;12.80;;;4.70;99.90;;;;;;5054729;28;20466;-80
2023/04/05 05:44:37;;;;;;;17.30;11.50;;;4.70;99.90;;;;;;5055983;28;20166;-79
2023/04/05 05:47:06;;;;;;;23.90;11.97;;;4.80;99.90;;;;;;5054567;28;20187;-80
2023/04/05 05:50:31;;;;;;;19.00;12.93;;;4.80;99.90;;;;;;5055031;28;20168;-79
2023/04/05 05:53:35;;;;;;;18.30;11.77;;;4.80;99.90;;;;;;5054767;28;20627;-80
2023/04/05 05:56:12;;;;;;;17.33;11.13;;;4.90;99.90;;;;;;5054573;28;20212;-79
2023/04/05 06:02:00;;;;;;;20.17;12.00;;;5.00;99.90;;;;;;5055869;28;20208;-79
2023/04/05 06:04:28;;;;;;;27.30;12.57;;;5.10;99.90;;;;;;5054866;28;20173;-79
2023/04/05 06:07:25;;;;;;;21.90;12.43;;;5.10;99.90;;;;;;5054774;28;20178;-78
2023/04/05 06:09:54;;;;;;;18.30;10.63;;;5.10;99.90;;;;;;5053996;28;20198;-81
2023/04/05 06:12:26;;;;;;;22.37;12.17;;;5.20;99.90;;;;;;5053976;28;20258;-79
2023/04/05 06:14:58;;;;;;;25.17;13.20;;;5.20;99.90;;;;;;5054000;28;20197;-79
2023/04/05 06:17:27;;;;;;;24.57;13.27;;;5.30;99.90;;;;;;5053924;28;20180;-79
2023/04/05 06:19:55;;;;;;;26.13;11.60;;;5.30;99.90;;;;;;5053913;28;20220;-80
2023/04/05 06:22:50;;;;;;;20.37;12.07;;;5.40;99.90;;;;;;5053944;28;20182;-77
2023/04/05 06:25:53;;;;;;;25.33;14.47;;;5.50;99.90;;;;;;5053442;28;20212;-79
2023/04/05 06:28:21;;;;;;;22.27;12.33;;;5.50;99.90;;;;;;5053440;28;20198;-79
2023/04/05 06:30:50;;;;;;;21.80;13.00;;;5.60;99.90;;;;;;5053384;28;20163;-78
2023/04/05 06:33:20;;;;;;;20.70;12.40;;;5.70;99.90;;;;;;5053023;28;20719;-77
2023/04/05 06:36:09;;;;;;;25.17;12.80;;;5.80;99.90;;;;;;5034450;28;20243;-80
2023/04/05 06:38:38;;;;;;;23.63;12.60;;;5.80;99.90;;;;;;5047450;28;20758;-77
2023/04/05 06:41:06;;;;;;;23.00;13.00;;;5.90;99.90;;;;;;5065337;28;20170;-78
2023/04/05 06:43:38;;;;;;;23.47;13.00;;;5.90;99.90;;;;;;5053098;28;20224;-78
2023/04/05 06:46:10;;;;;;;28.93;12.30;;;6.00;99.90;;;;;;5054440;28;20152;-78
2023/04/05 06:49:10;;;;;;;23.30;12.50;;;6.00;99.90;;;;;;5052847;28;20646;-78
2023/04/05 06:51:38;;;;;;;22.77;12.60;;;6.10;99.90;;;;;;5052917;28;20264;-77
2023/04/05 06:54:10;;;;;;;23.00;13.27;;;6.30;99.90;;;;;;5053017;28;20535;-78
2023/04/05 06:56:42;;;;;;;24.03;12.53;;;6.40;99.90;;;;;;5051882;28;20185;-79
2023/04/05 06:59:09;;;;;;;20.77;12.47;;;6.50;99.90;;;;;;5049940;28;20198;-77
2023/04/05 07:01:46;;;;;;;29.87;13.17;;;6.60;99.90;;;;;;5059035;28;20563;-77
2023/04/05 07:04:11;;;;;;;22.73;12.60;;;6.80;99.90;;;;;;5052017;28;20168;-78
2023/04/05 07:06:37;;;;;;;30.67;13.90;;;6.80;99.90;;;;;;5054929;28;20178;-78
2023/04/05 07:09:04;;;;;;;46.00;14.80;;;6.90;99.90;;;;;;5069385;28;20243;-78
2023/04/05 07:11:33;;;;;;;38.50;14.63;;;7.00;99.90;;;;;;5055489;28;20197;-79
2023/04/05 07:14:00;;;;;;;45.03;15.70;;;7.10;99.90;;;;;;5062852;28;20179;-77
2023/04/05 07:16:26;;;;;;;56.57;16.03;;;7.20;99.90;;;;;;5057160;28;20195;-78
2023/04/05 07:18:54;;;;;;;58.37;14.97;;;7.40;99.90;;;;;;5054353;28;20231;-78
2023/04/05 07:21:23;;;;;;;65.87;15.37;;;7.50;99.90;;;;;;5064526;28;20636;-78
2023/04/05 07:23:54;;;;;;;46.33;15.43;;;7.70;99.90;;;;;;5072130;28;20170;-77
2023/04/05 07:26:23;;;;;;;45.73;14.73;;;7.80;99.90;;;;;;5069300;28;20558;-78
2023/04/05 07:28:49;;;;;;;30.13;12.60;;;7.80;99.90;;;;;;5055711;28;20714;-78
2023/04/05 07:31:17;;;;;;;26.07;12.43;;;7.90;99.90;;;;;;5053070;28;20192;-78
2023/04/05 07:34:06;;;;;;;39.97;13.63;;;8.00;99.90;;;;;;5052136;28;20267;-79
2023/04/05 07:36:35;;;;;;;29.97;12.07;;;8.20;99.90;;;;;;5048538;28;20207;-78
2023/04/05 07:39:04;;;;;;;31.00;12.30;;;8.30;99.90;;;;;;5051983;28;20215;-78
2023/04/05 07:41:34;;;;;;;35.20;11.93;;;8.40;99.90;;;;;;5034240;28;20235;-78
2023/04/05 07:44:03;;;;;;;40.30;11.13;;;8.50;99.90;;;;;;5051568;28;20171;-79
2023/04/05 07:46:31;;;;;;;24.73;10.40;;;8.70;99.90;;;;;;5053217;28;20201;-78
2023/04/05 07:49:00;;;;;;;23.40;10.63;;;8.80;99.90;;;;;;5045495;28;20209;-78
2023/04/05 07:51:28;;;;;;;28.00;11.27;;;8.90;99.90;;;;;;5045222;28;20209;-76
2023/04/05 07:54:12;;;;;;;20.40;10.93;;;9.00;99.90;;;;;;5041512;28;20587;-77
2023/04/05 07:56:41;;;;;;;23.40;10.10;;;9.10;99.90;;;;;;5055372;28;20189;-78
2023/04/05 07:59:12;;;;;;;21.77;9.63;;;9.30;99.90;;;;;;5036171;28;20669;-78
2023/04/05 08:02:03;;;;;;;26.00;9.40;;;9.40;99.50;;;;;;5059935;28;20262;-78
2023/04/05 08:04:40;;;;;;;20.07;9.53;;;9.50;99.20;;;;;;5057502;28;20200;-79
2023/04/05 08:07:08;;;;;;;24.30;9.07;;;9.80;97.80;;;;;;5053685;28;20628;-77
2023/04/05 08:10:00;;;;;;;15.27;8.93;;;9.80;97.20;;;;;;5051430;28;20240;-77
2023/04/05 08:12:34;;;;;;;16.63;8.17;;;9.90;95.40;;;;;;5043200;28;20188;-77
2023/04/05 08:15:04;;;;;;;14.70;7.67;;;10.10;94.90;;;;;;5059855;28;20178;-78
2023/04/05 08:17:33;;;;;;;19.60;8.47;;;10.00;95.10;;;;;;5074091;28;20187;-77
2023/04/05 08:20:00;;;;;;;14.53;7.73;;;10.00;95.10;;;;;;5065064;28;20191;-77
2023/04/05 08:22:28;;;;;;;16.73;8.00;;;10.10;94.10;;;;;;5048296;28;20171;-77
2023/04/05 08:24:55;;;;;;;11.60;6.37;;;10.30;93.60;;;;;;5058488;28;20203;-77
2023/04/05 08:27:22;;;;;;;13.13;5.87;;;10.20;92.90;;;;;;5054647;28;20229;-76
2023/04/05 08:29:48;;;;;;;12.83;6.07;;;10.10;92.40;;;;;;5055473;28;20211;-78
2023/04/05 08:32:16;;;;;;;11.07;6.47;;;10.00;92.20;;;;;;5052875;28;20228;-80
2023/04/05 08:34:44;;;;;;;11.70;6.23;;;10.00;91.70;;;;;;5054637;28;20254;-77
2023/04/05 08:37:13;;;;;;;8.40;5.03;;;10.30;90.90;;;;;;5061265;28;20667;-77
2023/04/05 08:39:42;;;;;;;9.70;5.63;;;10.40;90.60;;;;;;5056093;28;20208;-78
2023/04/05 08:42:16;;;;;;;10.40;5.77;;;10.40;90.30;;;;;;5055110;28;20215;-78
2023/04/05 08:45:25;;;;;;;12.20;6.13;;;10.60;90.10;;;;;;5060183;28;20180;-78
2023/04/05 08:47:54;;;;;;;7.47;4.80;;;10.60;90.00;;;;;;5057191;28;20764;-78
2023/04/05 08:50:21;;;;;;;8.73;5.60;;;10.50;90.00;;;;;;5054117;28;20181;-77
2023/04/05 08:52:50;;;;;;;10.17;7.13;;;10.40;90.30;;;;;;5054817;28;20176;-78
2023/04/05 08:55:24;;;;;;;11.20;5.37;;;10.60;90.40;;;;;;5055824;28;20183;-77
2023/04/05 08:58:13;;;;;;;8.03;5.87;;;10.70;88.90;;;;;;5056008;28;20610;-78
2023/04/05 09:01:06;;;;;;;9.63;6.10;;;10.70;88.20;;;;;;5057236;28;20184;-78
2023/04/05 09:03:56;;;;;;;8.77;5.63;;;10.90;87.90;;;;;;5066689;28;20652;-78
2023/04/05 09:06:21;;;;;;;14.50;6.33;;;11.00;87.40;;;;;;5055367;28;20209;-76
2023/04/05 09:08:48;;;;;;;14.90;6.00;;;11.00;88.20;;;;;;5054443;28;20602;-78
2023/04/05 09:11:17;;;;;;;11.57;6.47;;;10.90;87.80;;;;;;5052236;28;20177;-77
2023/04/05 09:13:43;;;;;;;10.77;6.40;;;10.90;88.70;;;;;;5042918;28;20622;-77
2023/04/05 09:16:13;;;;;;;12.63;7.23;;;10.40;88.50;;;;;;5044560;28;20175;-77
2023/04/05 09:18:39;;;;;;;10.23;6.70;;;10.50;89.10;;;;;;5037611;28;20196;-79
2023/04/05 09:21:05;;;;;;;13.50;7.10;;;10.80;89.10;;;;;;5048957;28;20359;-78
2023/04/05 09:23:34;;;;;;;12.63;7.23;;;10.90;89.20;;;;;;5054453;28;20253;-76
2023/04/05 09:26:18;;;;;;;11.43;6.50;;;11.10;88.10;;;;;;5054630;28;20173;-77
2023/04/05 09:28:57;;;;;;;10.43;6.47;;;11.20;86.90;;;;;;5054927;28;20654;-77
2023/04/05 09:31:35;;;;;;;15.07;7.20;;;10.90;87.50;;;;;;5054700;28;20184;-77
2023/04/05 09:34:20;;;;;;;13.83;7.60;;;10.70;88.00;;;;;;5054503;28;20181;-77
2023/04/05 09:36:49;;;;;;;13.83;6.97;;;10.80;87.80;;;;;;5054531;28;20182;-79
2023/04/05 09:39:29;;;;;;;11.33;7.60;;;11.10;88.00;;;;;;5054434;28;20204;-78
2023/04/05 09:42:15;;;;;;;11.97;6.77;;;11.30;86.50;;;;;;5054288;28;20159;-76
2023/04/05 09:45:03;;;;;;;12.87;7.47;;;11.40;87.50;;;;;;5054402;28;20192;-77
2023/04/05 09:47:57;;;;;;;13.53;7.70;;;11.50;86.60;;;;;;5054363;28;20196;-77
2023/04/05 09:50:26;;;;;;;12.60;7.63;;;11.60;86.30;;;;;;5054333;28;20165;-77
2023/04/05 09:53:05;;;;;;;10.50;7.33;;;11.50;86.00;;;;;;5054265;28;20163;-78
2023/04/05 09:55:34;;;;;;;13.80;7.80;;;11.60;85.30;;;;;;5053873;28;20649;-77
2023/04/05 09:58:03;;;;;;;11.50;7.47;;;11.40;86.40;;;;;;5053804;28;20172;-77
2023/04/05 10:00:51;;;;;;;11.23;7.03;;;11.50;85.00;;;;;;5053712;28;20206;-78
2023/04/05 10:03:23;;;;;;;13.03;7.00;;;11.60;84.50;;;;;;5053889;28;20216;-77
2023/04/05 10:05:59;;;;;;;12.87;7.07;;;11.60;83.60;;;;;;5053545;28;20622;-77
2023/04/05 10:08:40;;;;;;;13.57;7.23;;;11.40;84.70;;;;;;5053505;28;20203;-79
2023/04/05 10:11:10;;;;;;;10.30;6.93;;;11.30;85.60;;;;;;5053870;28;20190;-78
2023/04/05 10:14:03;;;;;;;12.57;7.27;;;11.30;84.40;;;;;;5055385;28;20529;-78
2023/04/05 10:16:42;;;;;;;12.37;6.97;;;11.50;83.30;;;;;;5053755;28;20167;-78
2023/04/05 10:19:22;;;;;;;14.70;7.67;;;11.60;82.80;;;;;;5053591;28;20545;-78
2023/04/05 10:21:53;;;;;;;10.30;7.27;;;11.80;83.00;;;;;;5054042;28;20262;-78
2023/04/05 10:24:37;;;;;;;12.17;7.00;;;11.90;83.30;;;;;;5055098;28;20185;-77
2023/04/05 10:27:27;;;;;;;11.87;7.23;;;12.20;83.40;;;;;;5053037;28;20285;-78
2023/04/05 10:30:16;;;;;;;13.80;7.70;;;12.30;82.80;;;;;;5052840;28;20234;-77
2023/04/05 10:33:11;;;;;;;11.53;7.50;;;12.40;84.30;;;;;;5053070;28;20175;-78
2023/04/05 10:36:10;;;;;;;12.00;7.77;;;12.70;82.10;;;;;;5052255;28;20191;-78
2023/04/05 10:38:44;;;;;;;12.23;7.87;;;12.80;82.30;;;;;;5053324;28;20172;-77
2023/04/05 10:41:21;;;;;;;10.80;7.17;;;12.80;81.30;;;;;;5054534;28;20624;-78
2023/04/05 10:44:04;;;;;;;14.43;7.73;;;12.90;81.20;;;;;;5054650;28;20163;-78
2023/04/05 10:46:55;;;;;;;12.30;7.67;;;12.90;80.20;;;;;;5053728;28;20213;-78
2023/04/05 10:49:45;;;;;;;12.73;7.73;;;12.80;81.10;;;;;;5053985;28;20224;-77
2023/04/05 10:52:13;;;;;;;11.93;7.27;;;12.90;81.30;;;;;;5053165;28;20168;-78
2023/04/05 10:54:39;;;;;;;11.50;7.93;;;12.80;79.60;;;;;;5051834;28;20682;-79
2023/04/05 10:57:07;;;;;;;13.23;7.80;;;13.20;78.00;;;;;;5052303;28;20652;-77
2023/04/05 10:59:34;;;;;;;12.27;7.57;;;13.20;78.70;;;;;;5051348;28;20771;-78
2023/04/05 11:02:03;;;;;;;11.90;7.50;;;13.30;78.80;;;;;;5052416;28;20176;-78
2023/04/05 11:04:28;;;;;;;11.57;6.53;;;13.70;78.90;;;;;;5052443;28;20172;-77
2023/04/05 11:07:14;;;;;;;10.00;7.17;;;14.00;77.50;;;;;;5052044;28;20175;-77
2023/04/05 11:10:03;;;;;;;11.27;7.30;;;14.40;77.40;;;;;;5053600;28;20197;-77
2023/04/05 11:12:47;;;;;;;11.67;7.67;;;14.80;76.40;;;;;;5053059;28;20169;-78
2023/04/05 11:15:27;;;;;;;12.93;7.00;;;15.70;73.90;;;;;;5052732;28;20259;-78
2023/04/05 11:18:08;;;;;;;12.73;7.33;;;16.10;71.80;;;;;;5052318;28;20584;-78
2023/04/05 11:20:47;;;;;;;12.27;7.80;;;16.40;70.90;;;;;;5052401;28;20181;-78
2023/04/05 11:23:19;;;;;;;12.13;6.80;;;16.20;68.60;;;;;;5053547;28;20238;-79
2023/04/05 11:26:02;;;;;;;16.07;8.00;;;16.10;68.80;;;;;;5051634;28;20597;-78
2023/04/05 11:28:39;;;;;;;9.77;6.57;;;16.60;67.90;;;;;;5051661;28;20217;-78
2023/04/05 11:31:24;;;;;;;10.93;6.67;;;17.00;67.60;;;;;;5052818;28;20261;-78
2023/04/05 11:33:53;;;;;;;11.20;7.37;;;17.30;65.90;;;;;;5052842;28;20266;-78
2023/04/05 11:36:37;;;;;;;8.83;7.13;;;17.40;64.40;;;;;;5051332;28;20326;-77
2023/04/05 11:39:18;;;;;;;11.57;7.50;;;17.20;63.90;;;;;;5051278;28;20706;-78
2023/04/05 11:42:00;;;;;;;12.50;7.67;;;17.00;63.30;;;;;;5053012;28;20178;-76
2023/04/05 11:44:28;;;;;;;9.87;6.70;;;17.60;63.40;;;;;;5052763;28;20626;-78
2023/04/05 11:46:54;;;;;;;9.33;6.97;;;18.20;61.30;;;;;;5051763;28;20164;-77
2023/04/05 11:49:24;;;;;;;12.53;7.47;;;18.80;58.00;;;;;;5051735;28;20168;-78
2023/04/05 11:51:52;;;;;;;8.97;6.87;;;19.00;57.60;;;;;;5051535;28;20171;-77
2023/04/05 11:54:31;;;;;;;11.30;7.43;;;19.50;57.30;;;;;;5053275;28;20156;-77
2023/04/05 11:56:57;;;;;;;13.47;7.63;;;19.60;55.50;;;;;;5053858;28;20160;-77
2023/04/05 11:59:30;;;;;;;8.80;6.83;;;19.80;54.70;;;;;;5053295;28;20699;-78
2023/04/05 12:02:05;;;;;;;14.17;7.90;;;19.80;54.70;;;;;;5052082;28;20174;-77
2023/04/05 12:04:31;;;;;;;12.07;7.40;;;19.70;54.00;;;;;;5053353;28;20159;-79
2023/04/05 12:07:16;;;;;;;10.60;7.80;;;20.20;53.30;;;;;;5052875;28;20152;-79
2023/04/05 12:10:03;;;;;;;10.80;7.50;;;20.30;52.70;;;;;;5051124;28;20189;-78
2023/04/05 12:12:42;;;;;;;10.07;7.17;;;21.20;52.10;;;;;;5051219;28;20203;-77
2023/04/05 12:15:18;;;;;;;12.23;7.83;;;22.00;51.50;;;;;;5051254;28;20670;-77
2023/04/05 12:17:49;;;;;;;10.37;7.80;;;22.60;50.10;;;;;;5052470;28;20171;-77
2023/04/05 12:20:24;;;;;;;11.53;7.63;;;23.00;49.30;;;;;;5051033;28;20544;-79
2023/04/05 12:22:52;;;;;;;11.50;7.87;;;22.80;48.40;;;;;;5050842;28;20517;-79
2023/04/05 12:25:18;;;;;;;14.67;8.50;;;23.20;47.70;;;;;;5051670;28;20167;-79
2023/04/05 12:27:45;;;;;;;11.70;8.43;;;23.30;47.00;;;;;;5051725;28;20229;-77
2023/04/05 12:30:21;;;;;;;10.67;7.73;;;23.60;45.20;;;;;;5052232;28;20172;-76
2023/04/05 12:32:54;;;;;;;12.17;8.27;;;22.40;46.20;;;;;;5052829;28;20179;-78
2023/04/05 12:35:31;;;;;;;11.40;8.10;;;22.10;46.80;;;;;;5053248;28;20583;-79
2023/04/05 12:38:00;;;;;;;14.97;8.13;;;21.90;46.30;;;;;;5052198;28;20171;-79
2023/04/05 12:40:29;;;;;;;13.70;8.57;;;22.00;46.40;;;;;;5052137;28;20195;-79
2023/04/05 12:43:04;;;;;;;13.67;8.93;;;21.50;46.10;;;;;;5051002;28;20297;-80
2023/04/05 12:45:33;;;;;;;12.20;7.77;;;21.50;45.70;;;;;;5050931;28;20364;-79
2023/04/05 12:47:59;;;;;;;14.10;9.37;;;21.60;46.30;;;;;;5051071;28;20175;-79
2023/04/05 12:50:30;;;;;;;15.00;8.23;;;22.00;45.40;;;;;;5052104;28;20640;-78
2023/04/05 12:53:00;;;;;;;14.50;8.83;;;22.70;44.80;;;;;;5052018;28;20161;-79
2023/04/05 12:55:28;;;;;;;15.27;8.13;;;22.20;45.00;;;;;;5051411;28;20172;-80
2023/04/05 12:57:59;;;;;;;14.30;7.67;;;21.90;46.20;;;;;;5051355;28;20173;-79
2023/04/05 13:00:28;;;;;;;14.47;8.73;;;20.50;46.10;;;;;;5054407;28;20240;-79
2023/04/05 13:02:56;;;;;;;13.97;8.90;;;19.80;47.20;;;;;;5054803;28;20160;-80
2023/04/05 13:05:27;;;;;;;13.93;7.90;;;19.40;47.20;;;;;;5054985;28;20163;-80
2023/04/05 13:07:53;;;;;;;11.50;8.03;;;19.10;47.80;;;;;;5055300;28;20532;-79
2023/04/05 13:10:20;;;;;;;13.03;8.33;;;19.00;47.60;;;;;;5056370;28;20183;-80